sensor_id;sensor_type;location;lat;lon;timestamp;P1;durP1;ratioP1;P2;durP2;ratioP2
11620;SDS011;5866;49.094;11.900;2023-05-07T00:02:15;4.20;;;3.90;;
11620;SDS011;5866;49.094;11.900;2023-05-07T00:04:43;5.07;;;4.57;;
11620;SDS011;5866;49.094;11.900;2023-05-07T00:07:10;4.70;;;4.30;;
11620;SDS011;5866;49.094;11.900;2023-05-07T00:09:38;5.57;;;5.07;;
11620;SDS011;5866;49.094;11.900;2023-05-07T00:12:07;4.80;;;4.40;;
11620;SDS011;5866;49.094;11.900;2023-05-07T00:14:34;7.05;;;6.35;;
11620;SDS011;5866;49.094;11.900;2023-05-07T00:17:02;6.25;;;5.30;;
11620;SDS011;5866;49.094;11.900;2023-05-07T00:19:29;6.32;;;5.30;;
11620;SDS011;5866;49.094;11.900;2023-05-07T00:21:57;7.45;;;6.80;;
11620;SDS011;5866;49.094;11.900;2023-05-07T00:24:25;8.45;;;7.85;;
11620;SDS011;5866;49.094;11.900;2023-05-07T00:26:53;6.85;;;6.35;;
11620;SDS011;5866;49.094;11.900;2023-05-07T00:29:21;7.97;;;7.13;;
11620;SDS011;5866;49.094;11.900;2023-05-07T00:31:49;9.10;;;7.80;;
11620;SDS011;5866;49.094;11.900;2023-05-07T00:34:18;8.35;;;7.65;;
11620;SDS011;5866;49.094;11.900;2023-05-07T00:36:46;9.85;;;8.88;;
11620;SDS011;5866;49.094;11.900;2023-05-07T00:39:13;9.30;;;8.40;;
11620;SDS011;5866;49.094;11.900;2023-05-07T00:41:41;8.77;;;7.97;;
11620;SDS011;5866;49.094;11.900;2023-05-07T00:44:08;8.65;;;7.85;;
11620;SDS011;5866;49.094;11.900;2023-05-07T00:46:37;8.07;;;7.35;;
11620;SDS011;5866;49.094;11.900;2023-05-07T00:49:05;8.70;;;7.70;;
11620;SDS011;5866;49.094;11.900;2023-05-07T00:51:32;9.85;;;9.02;;
11620;SDS011;5866;49.094;11.900;2023-05-07T00:54:01;8.40;;;7.60;;
11620;SDS011;5866;49.094;11.900;2023-05-07T00:56:29;8.40;;;7.55;;
11620;SDS011;5866;49.094;11.900;2023-05-07T00:59:00;9.82;;;8.80;;
11620;SDS011;5866;49.094;11.900;2023-05-07T01:01:28;10.02;;;9.13;;
11620;SDS011;5866;49.094;11.900;2023-05-07T01:03:57;9.98;;;9.05;;
11620;SDS011;5866;49.094;11.900;2023-05-07T01:06:25;9.40;;;7.28;;
11620;SDS011;5866;49.094;11.900;2023-05-07T01:08:54;8.73;;;7.90;;
11620;SDS011;5866;49.094;11.900;2023-05-07T01:11:23;8.77;;;7.97;;
11620;SDS011;5866;49.094;11.900;2023-05-07T01:13:51;8.45;;;7.57;;
11620;SDS011;5866;49.094;11.900;2023-05-07T01:16:20;10.45;;;8.63;;
11620;SDS011;5866;49.094;11.900;2023-05-07T01:18:48;9.15;;;8.23;;
11620;SDS011;5866;49.094;11.900;2023-05-07T01:21:16;8.82;;;8.00;;
11620;SDS011;5866;49.094;11.900;2023-05-07T01:23:46;10.73;;;8.68;;
11620;SDS011;5866;49.094;11.900;2023-05-07T01:26:14;9.32;;;8.38;;
11620;SDS011;5866;49.094;11.900;2023-05-07T01:28:42;9.13;;;8.32;;
11620;SDS011;5866;49.094;11.900;2023-05-07T01:31:09;9.23;;;8.18;;
11620;SDS011;5866;49.094;11.900;2023-05-07T01:33:40;8.90;;;8.10;;
11620;SDS011;5866;49.094;11.900;2023-05-07T01:36:11;8.93;;;8.10;;
11620;SDS011;5866;49.094;11.900;2023-05-07T01:38:41;8.55;;;7.78;;
11620;SDS011;5866;49.094;11.900;2023-05-07T01:41:10;9.45;;;8.55;;
11620;SDS011;5866;49.094;11.900;2023-05-07T01:43:39;9.75;;;8.85;;
11620;SDS011;5866;49.094;11.900;2023-05-07T01:46:08;9.93;;;8.35;;
11620;SDS011;5866;49.094;11.900;2023-05-07T01:48:37;9.82;;;8.48;;
11620;SDS011;5866;49.094;11.900;2023-05-07T01:51:05;11.77;;;9.00;;
11620;SDS011;5866;49.094;11.900;2023-05-07T01:53:35;9.60;;;8.60;;
11620;SDS011;5866;49.094;11.900;2023-05-07T01:56:03;8.63;;;7.80;;
11620;SDS011;5866;49.094;11.900;2023-05-07T01:58:32;9.23;;;8.32;;
11620;SDS011;5866;49.094;11.900;2023-05-07T02:01:00;10.35;;;7.90;;
11620;SDS011;5866;49.094;11.900;2023-05-07T02:03:27;9.27;;;8.30;;
11620;SDS011;5866;49.094;11.900;2023-05-07T02:05:55;9.00;;;8.10;;
11620;SDS011;5866;49.094;11.900;2023-05-07T02:08:23;9.40;;;8.50;;
11620;SDS011;5866;49.094;11.900;2023-05-07T02:10:50;8.75;;;7.95;;
11620;SDS011;5866;49.094;11.900;2023-05-07T02:13:19;8.18;;;7.40;;
11620;SDS011;5866;49.094;11.900;2023-05-07T02:15:49;8.65;;;7.85;;
11620;SDS011;5866;49.094;11.900;2023-05-07T02:18:17;8.27;;;7.53;;
11620;SDS011;5866;49.094;11.900;2023-05-07T02:20:45;8.57;;;7.22;;
11620;SDS011;5866;49.094;11.900;2023-05-07T02:23:12;8.05;;;7.25;;
11620;SDS011;5866;49.094;11.900;2023-05-07T02:25:40;8.07;;;7.32;;
11620;SDS011;5866;49.094;11.900;2023-05-07T02:28:07;8.35;;;7.63;;
11620;SDS011;5866;49.094;11.900;2023-05-07T02:30:35;8.27;;;7.57;;
11620;SDS011;5866;49.094;11.900;2023-05-07T02:33:05;8.02;;;7.32;;
11620;SDS011;5866;49.094;11.900;2023-05-07T02:35:34;9.02;;;8.23;;
11620;SDS011;5866;49.094;11.900;2023-05-07T02:38:02;9.30;;;8.40;;
11620;SDS011;5866;49.094;11.900;2023-05-07T02:40:29;8.98;;;8.07;;
11620;SDS011;5866;49.094;11.900;2023-05-07T02:42:59;9.23;;;7.65;;
11620;SDS011;5866;49.094;11.900;2023-05-07T02:45:27;8.63;;;7.82;;
11620;SDS011;5866;49.094;11.900;2023-05-07T02:47:54;9.18;;;8.27;;
11620;SDS011;5866;49.094;11.900;2023-05-07T02:50:23;8.63;;;7.72;;
11620;SDS011;5866;49.094;11.900;2023-05-07T02:52:51;8.98;;;8.10;;
11620;SDS011;5866;49.094;11.900;2023-05-07T02:55:18;9.05;;;8.18;;
11620;SDS011;5866;49.094;11.900;2023-05-07T02:57:46;8.50;;;7.70;;
11620;SDS011;5866;49.094;11.900;2023-05-07T03:00:14;9.13;;;7.90;;
11620;SDS011;5866;49.094;11.900;2023-05-07T03:02:43;9.05;;;8.15;;
11620;SDS011;5866;49.094;11.900;2023-05-07T03:05:11;8.98;;;8.05;;
11620;SDS011;5866;49.094;11.900;2023-05-07T03:07:41;9.07;;;8.18;;
11620;SDS011;5866;49.094;11.900;2023-05-07T03:10:11;13.02;;;8.93;;
11620;SDS011;5866;49.094;11.900;2023-05-07T03:12:38;10.93;;;8.55;;
11620;SDS011;5866;49.094;11.900;2023-05-07T03:15:07;10.05;;;9.00;;
11620;SDS011;5866;49.094;11.900;2023-05-07T03:17:35;10.00;;;8.95;;
11620;SDS011;5866;49.094;11.900;2023-05-07T03:20:03;9.35;;;8.45;;
11620;SDS011;5866;49.094;11.900;2023-05-07T03:22:31;11.27;;;9.05;;
11620;SDS011;5866;49.094;11.900;2023-05-07T03:25:00;10.27;;;9.27;;
11620;SDS011;5866;49.094;11.900;2023-05-07T03:27:27;10.07;;;9.07;;
11620;SDS011;5866;49.094;11.900;2023-05-07T03:29:55;13.80;;;9.00;;
11620;SDS011;5866;49.094;11.900;2023-05-07T03:32:22;9.50;;;8.60;;
11620;SDS011;5866;49.094;11.900;2023-05-07T03:34:50;11.98;;;8.85;;
11620;SDS011;5866;49.094;11.900;2023-05-07T03:37:17;10.02;;;9.07;;
11620;SDS011;5866;49.094;11.900;2023-05-07T03:39:45;10.57;;;9.55;;
11620;SDS011;5866;49.094;11.900;2023-05-07T03:42:14;10.55;;;9.55;;
11620;SDS011;5866;49.094;11.900;2023-05-07T03:44:42;10.85;;;9.23;;
11620;SDS011;5866;49.094;11.900;2023-05-07T03:47:09;12.30;;;9.75;;
11620;SDS011;5866;49.094;11.900;2023-05-07T03:49:37;10.45;;;9.45;;
11620;SDS011;5866;49.094;11.900;2023-05-07T03:52:04;10.70;;;9.60;;
11620;SDS011;5866;49.094;11.900;2023-05-07T03:54:32;10.52;;;9.23;;
11620;SDS011;5866;49.094;11.900;2023-05-07T03:56:59;10.18;;;9.18;;
11620;SDS011;5866;49.094;11.900;2023-05-07T03:59:29;9.93;;;8.95;;
11620;SDS011;5866;49.094;11.900;2023-05-07T04:01:57;9.60;;;8.40;;
11620;SDS011;5866;49.094;11.900;2023-05-07T04:04:27;12.85;;;9.85;;
11620;SDS011;5866;49.094;11.900;2023-05-07T04:06:58;10.18;;;9.18;;
11620;SDS011;5866;49.094;11.900;2023-05-07T04:09:26;12.13;;;9.45;;
11620;SDS011;5866;49.094;11.900;2023-05-07T04:11:54;11.55;;;9.65;;
11620;SDS011;5866;49.094;11.900;2023-05-07T04:14:21;10.70;;;9.52;;
11620;SDS011;5866;49.094;11.900;2023-05-07T04:16:50;11.43;;;8.90;;
11620;SDS011;5866;49.094;11.900;2023-05-07T04:19:17;10.48;;;9.23;;
11620;SDS011;5866;49.094;11.900;2023-05-07T04:21:45;10.23;;;7.95;;
11620;SDS011;5866;49.094;11.900;2023-05-07T04:24:12;9.40;;;8.32;;
11620;SDS011;5866;49.094;11.900;2023-05-07T04:26:40;9.55;;;8.48;;
11620;SDS011;5866;49.094;11.900;2023-05-07T04:29:07;10.40;;;8.48;;
11620;SDS011;5866;49.094;11.900;2023-05-07T04:31:35;8.60;;;7.70;;
11620;SDS011;5866;49.094;11.900;2023-05-07T04:34:04;12.52;;;8.00;;
11620;SDS011;5866;49.094;11.900;2023-05-07T04:36:31;10.10;;;7.82;;
11620;SDS011;5866;49.094;11.900;2023-05-07T04:38:59;8.02;;;7.22;;
11620;SDS011;5866;49.094;11.900;2023-05-07T04:41:27;9.93;;;7.32;;
11620;SDS011;5866;49.094;11.900;2023-05-07T04:43:54;7.85;;;6.82;;
11620;SDS011;5866;49.094;11.900;2023-05-07T04:46:23;8.35;;;7.55;;
11620;SDS011;5866;49.094;11.900;2023-05-07T04:48:51;8.00;;;7.20;;
11620;SDS011;5866;49.094;11.900;2023-05-07T04:51:19;8.02;;;7.32;;
11620;SDS011;5866;49.094;11.900;2023-05-07T04:53:47;7.25;;;6.65;;
11620;SDS011;5866;49.094;11.900;2023-05-07T04:56:16;7.75;;;6.97;;
11620;SDS011;5866;49.094;11.900;2023-05-07T04:58:44;6.88;;;6.28;;
11620;SDS011;5866;49.094;11.900;2023-05-07T05:01:11;6.75;;;6.13;;
11620;SDS011;5866;49.094;11.900;2023-05-07T05:03:39;7.00;;;6.40;;
11620;SDS011;5866;49.094;11.900;2023-05-07T05:06:07;8.73;;;5.82;;
11620;SDS011;5866;49.094;11.900;2023-05-07T05:08:36;6.38;;;5.78;;
11620;SDS011;5866;49.094;11.900;2023-05-07T05:11:03;6.78;;;6.18;;
11620;SDS011;5866;49.094;11.900;2023-05-07T05:13:31;8.48;;;5.55;;
11620;SDS011;5866;49.094;11.900;2023-05-07T05:15:58;6.78;;;6.18;;
11620;SDS011;5866;49.094;11.900;2023-05-07T05:18:26;8.25;;;6.75;;
11620;SDS011;5866;49.094;11.900;2023-05-07T05:20:53;7.25;;;6.55;;
11620;SDS011;5866;49.094;11.900;2023-05-07T05:23:21;6.78;;;6.18;;
11620;SDS011;5866;49.094;11.900;2023-05-07T05:25:49;6.78;;;6.07;;
11620;SDS011;5866;49.094;11.900;2023-05-07T05:28:17;6.68;;;6.07;;
11620;SDS011;5866;49.094;11.900;2023-05-07T05:30:45;6.70;;;5.70;;
11620;SDS011;5866;49.094;11.900;2023-05-07T05:33:12;6.50;;;5.90;;
11620;SDS011;5866;49.094;11.900;2023-05-07T05:35:40;6.15;;;5.57;;
11620;SDS011;5866;49.094;11.900;2023-05-07T05:38:07;7.72;;;5.97;;
11620;SDS011;5866;49.094;11.900;2023-05-07T05:40:35;8.02;;;6.38;;
11620;SDS011;5866;49.094;11.900;2023-05-07T05:43:03;6.65;;;6.05;;
11620;SDS011;5866;49.094;11.900;2023-05-07T05:45:31;6.50;;;5.90;;
11620;SDS011;5866;49.094;11.900;2023-05-07T05:47:59;7.85;;;6.50;;
11620;SDS011;5866;49.094;11.900;2023-05-07T05:50:27;8.90;;;6.30;;
11620;SDS011;5866;49.094;11.900;2023-05-07T05:52:54;6.70;;;6.03;;
11620;SDS011;5866;49.094;11.900;2023-05-07T05:55:22;7.95;;;7.13;;
11620;SDS011;5866;49.094;11.900;2023-05-07T05:57:50;7.40;;;6.05;;
11620;SDS011;5866;49.094;11.900;2023-05-07T06:00:19;6.80;;;6.20;;
11620;SDS011;5866;49.094;11.900;2023-05-07T06:02:48;7.47;;;6.68;;
11620;SDS011;5866;49.094;11.900;2023-05-07T06:05:16;6.88;;;6.18;;
11620;SDS011;5866;49.094;11.900;2023-05-07T06:07:43;6.00;;;5.40;;
11620;SDS011;5866;49.094;11.900;2023-05-07T06:10:11;6.40;;;5.80;;
11620;SDS011;5866;49.094;11.900;2023-05-07T06:12:39;6.30;;;5.70;;
11620;SDS011;5866;49.094;11.900;2023-05-07T06:15:07;8.88;;;6.78;;
11620;SDS011;5866;49.094;11.900;2023-05-07T06:17:36;7.03;;;5.95;;
11620;SDS011;5866;49.094;11.900;2023-05-07T06:20:04;8.00;;;6.43;;
11620;SDS011;5866;49.094;11.900;2023-05-07T06:22:32;6.85;;;6.20;;
11620;SDS011;5866;49.094;11.900;2023-05-07T06:24:59;6.10;;;5.57;;
11620;SDS011;5866;49.094;11.900;2023-05-07T06:27:27;6.75;;;6.10;;
11620;SDS011;5866;49.094;11.900;2023-05-07T06:29:55;9.07;;;6.18;;
11620;SDS011;5866;49.094;11.900;2023-05-07T06:32:22;7.20;;;6.50;;
11620;SDS011;5866;49.094;11.900;2023-05-07T06:34:51;6.45;;;5.78;;
11620;SDS011;5866;49.094;11.900;2023-05-07T06:37:18;6.93;;;6.32;;
11620;SDS011;5866;49.094;11.900;2023-05-07T06:39:46;9.65;;;6.03;;
11620;SDS011;5866;49.094;11.900;2023-05-07T06:42:13;6.90;;;6.20;;
11620;SDS011;5866;49.094;11.900;2023-05-07T06:44:41;6.97;;;6.38;;
11620;SDS011;5866;49.094;11.900;2023-05-07T06:47:08;6.75;;;6.13;;
11620;SDS011;5866;49.094;11.900;2023-05-07T06:49:38;6.45;;;5.90;;
11620;SDS011;5866;49.094;11.900;2023-05-07T06:52:07;7.63;;;5.57;;
11620;SDS011;5866;49.094;11.900;2023-05-07T06:54:34;6.50;;;5.93;;
11620;SDS011;5866;49.094;11.900;2023-05-07T06:57:02;7.50;;;6.80;;
11620;SDS011;5866;49.094;11.900;2023-05-07T06:59:29;6.57;;;5.88;;
11620;SDS011;5866;49.094;11.900;2023-05-07T07:01:57;8.88;;;6.55;;
11620;SDS011;5866;49.094;11.900;2023-05-07T07:04:24;8.20;;;6.70;;
11620;SDS011;5866;49.094;11.900;2023-05-07T07:06:52;6.90;;;6.20;;
11620;SDS011;5866;49.094;11.900;2023-05-07T07:09:22;9.77;;;6.20;;
11620;SDS011;5866;49.094;11.900;2023-05-07T07:11:50;6.70;;;6.10;;
11620;SDS011;5866;49.094;11.900;2023-05-07T07:14:17;7.60;;;6.45;;
11620;SDS011;5866;49.094;11.900;2023-05-07T07:16:44;7.32;;;6.00;;
11620;SDS011;5866;49.094;11.900;2023-05-07T07:19:12;7.07;;;6.38;;
11620;SDS011;5866;49.094;11.900;2023-05-07T07:21:41;6.55;;;6.03;;
11620;SDS011;5866;49.094;11.900;2023-05-07T07:24:08;6.95;;;6.03;;
11620;SDS011;5866;49.094;11.900;2023-05-07T07:26:37;6.68;;;6.05;;
11620;SDS011;5866;49.094;11.900;2023-05-07T07:29:06;8.52;;;6.82;;
11620;SDS011;5866;49.094;11.900;2023-05-07T07:31:33;6.85;;;6.18;;
11620;SDS011;5866;49.094;11.900;2023-05-07T07:34:01;6.78;;;6.18;;
11620;SDS011;5866;49.094;11.900;2023-05-07T07:36:28;7.22;;;6.15;;
11620;SDS011;5866;49.094;11.900;2023-05-07T07:39:11;6.82;;;6.13;;
11620;SDS011;5866;49.094;11.900;2023-05-07T07:41:39;7.15;;;6.45;;
11620;SDS011;5866;49.094;11.900;2023-05-07T07:44:07;6.30;;;5.70;;
11620;SDS011;5866;49.094;11.900;2023-05-07T07:46:35;9.20;;;6.88;;
11620;SDS011;5866;49.094;11.900;2023-05-07T07:49:03;6.63;;;6.03;;
11620;SDS011;5866;49.094;11.900;2023-05-07T07:51:30;7.53;;;6.82;;
11620;SDS011;5866;49.094;11.900;2023-05-07T07:53:58;8.75;;;6.60;;
11620;SDS011;5866;49.094;11.900;2023-05-07T07:56:25;7.78;;;7.07;;
11620;SDS011;5866;49.094;11.900;2023-05-07T07:58:54;6.72;;;6.13;;
11620;SDS011;5866;49.094;11.900;2023-05-07T08:01:22;8.38;;;7.25;;
11620;SDS011;5866;49.094;11.900;2023-05-07T08:03:49;7.88;;;7.03;;
11620;SDS011;5866;49.094;11.900;2023-05-07T08:06:17;7.03;;;4.97;;
11620;SDS011;5866;49.094;11.900;2023-05-07T08:08:44;5.97;;;5.47;;
11620;SDS011;5866;49.094;11.900;2023-05-07T08:11:12;6.32;;;5.72;;
11620;SDS011;5866;49.094;11.900;2023-05-07T08:13:39;5.30;;;4.82;;
11620;SDS011;5866;49.094;11.900;2023-05-07T08:16:08;6.32;;;5.72;;
11620;SDS011;5866;49.094;11.900;2023-05-07T08:18:36;6.72;;;5.55;;
11620;SDS011;5866;49.094;11.900;2023-05-07T08:21:04;6.10;;;5.50;;
11620;SDS011;5866;49.094;11.900;2023-05-07T08:23:31;5.70;;;5.20;;
11620;SDS011;5866;49.094;11.900;2023-05-07T08:26:00;6.05;;;5.55;;
11620;SDS011;5866;49.094;11.900;2023-05-07T08:28:28;6.85;;;6.13;;
11620;SDS011;5866;49.094;11.900;2023-05-07T08:30:55;6.45;;;5.85;;
11620;SDS011;5866;49.094;11.900;2023-05-07T08:33:27;5.53;;;5.03;;
11620;SDS011;5866;49.094;11.900;2023-05-07T08:35:54;5.78;;;5.28;;
11620;SDS011;5866;49.094;11.900;2023-05-07T08:38:22;6.50;;;5.90;;
11620;SDS011;5866;49.094;11.900;2023-05-07T08:40:49;5.90;;;5.30;;
11620;SDS011;5866;49.094;11.900;2023-05-07T08:43:17;6.00;;;5.40;;
11620;SDS011;5866;49.094;11.900;2023-05-07T08:45:46;6.35;;;5.75;;
11620;SDS011;5866;49.094;11.900;2023-05-07T08:48:21;5.47;;;4.97;;
11620;SDS011;5866;49.094;11.900;2023-05-07T08:50:53;5.88;;;5.28;;
11620;SDS011;5866;49.094;11.900;2023-05-07T08:53:21;6.25;;;5.65;;
11620;SDS011;5866;49.094;11.900;2023-05-07T08:55:48;6.35;;;5.75;;
11620;SDS011;5866;49.094;11.900;2023-05-07T08:58:16;6.38;;;5.75;;
11620;SDS011;5866;49.094;11.900;2023-05-07T09:00:43;6.07;;;5.47;;
11620;SDS011;5866;49.094;11.900;2023-05-07T09:03:11;7.35;;;5.60;;
11620;SDS011;5866;49.094;11.900;2023-05-07T09:05:40;7.05;;;5.88;;
11620;SDS011;5866;49.094;11.900;2023-05-07T09:08:14;6.82;;;6.13;;
11620;SDS011;5866;49.094;11.900;2023-05-07T09:10:42;6.75;;;6.07;;
11620;SDS011;5866;49.094;11.900;2023-05-07T09:13:09;6.60;;;5.97;;
11620;SDS011;5866;49.094;11.900;2023-05-07T09:15:40;6.45;;;5.85;;
11620;SDS011;5866;49.094;11.900;2023-05-07T09:18:08;5.75;;;5.20;;
11620;SDS011;5866;49.094;11.900;2023-05-07T09:20:36;6.60;;;6.00;;
11620;SDS011;5866;49.094;11.900;2023-05-07T09:23:03;7.95;;;5.82;;
11620;SDS011;5866;49.094;11.900;2023-05-07T09:25:33;5.95;;;5.45;;
11620;SDS011;5866;49.094;11.900;2023-05-07T09:28:01;6.03;;;5.25;;
11620;SDS011;5866;49.094;11.900;2023-05-07T09:30:30;6.35;;;5.68;;
11620;SDS011;5866;49.094;11.900;2023-05-07T09:32:58;5.38;;;4.85;;
11620;SDS011;5866;49.094;11.900;2023-05-07T09:35:27;8.95;;;5.93;;
11620;SDS011;5866;49.094;11.900;2023-05-07T09:37:55;7.30;;;5.75;;
11620;SDS011;5866;49.094;11.900;2023-05-07T09:40:29;5.38;;;4.97;;
11620;SDS011;5866;49.094;11.900;2023-05-07T09:43:09;5.43;;;5.03;;
11620;SDS011;5866;49.094;11.900;2023-05-07T09:45:37;5.60;;;5.10;;
11620;SDS011;5866;49.094;11.900;2023-05-07T09:48:05;5.55;;;5.00;;
11620;SDS011;5866;49.094;11.900;2023-05-07T09:50:35;5.50;;;5.00;;
11620;SDS011;5866;49.094;11.900;2023-05-07T09:53:03;6.47;;;5.88;;
11620;SDS011;5866;49.094;11.900;2023-05-07T09:55:31;5.93;;;5.00;;
11620;SDS011;5866;49.094;11.900;2023-05-07T09:57:59;5.25;;;4.82;;
11620;SDS011;5866;49.094;11.900;2023-05-07T10:00:30;5.90;;;5.40;;
11620;SDS011;5866;49.094;11.900;2023-05-07T10:02:58;6.10;;;5.40;;
11620;SDS011;5866;49.094;11.900;2023-05-07T10:05:28;7.03;;;5.35;;
11620;SDS011;5866;49.094;11.900;2023-05-07T10:07:56;5.72;;;5.25;;
11620;SDS011;5866;49.094;11.900;2023-05-07T10:10:25;6.00;;;5.40;;
11620;SDS011;5866;49.094;11.900;2023-05-07T10:12:54;5.30;;;4.82;;
11620;SDS011;5866;49.094;11.900;2023-05-07T10:15:22;5.80;;;5.22;;
11620;SDS011;5866;49.094;11.900;2023-05-07T10:17:52;5.57;;;5.07;;
11620;SDS011;5866;49.094;11.900;2023-05-07T10:20:20;5.90;;;5.40;;
11620;SDS011;5866;49.094;11.900;2023-05-07T10:22:48;5.18;;;4.78;;
11620;SDS011;5866;49.094;11.900;2023-05-07T10:25:17;6.47;;;5.05;;
11620;SDS011;5866;49.094;11.900;2023-05-07T10:27:48;8.88;;;5.60;;
11620;SDS011;5866;49.094;11.900;2023-05-07T10:30:21;5.60;;;5.13;;
11620;SDS011;5866;49.094;11.900;2023-05-07T10:33:01;5.88;;;5.38;;
11620;SDS011;5866;49.094;11.900;2023-05-07T10:35:38;6.68;;;4.55;;
11620;SDS011;5866;49.094;11.900;2023-05-07T10:38:07;5.20;;;4.70;;
11620;SDS011;5866;49.094;11.900;2023-05-07T10:40:36;5.63;;;5.07;;
11620;SDS011;5866;49.094;11.900;2023-05-07T10:43:04;5.32;;;4.82;;
11620;SDS011;5866;49.094;11.900;2023-05-07T10:45:36;4.57;;;4.18;;
11620;SDS011;5866;49.094;11.900;2023-05-07T10:48:06;4.90;;;4.35;;
11620;SDS011;5866;49.094;11.900;2023-05-07T10:51:17;6.78;;;4.15;;
11620;SDS011;5866;49.094;11.900;2023-05-07T10:53:46;4.40;;;3.95;;
11620;SDS011;5866;49.094;11.900;2023-05-07T10:56:26;4.97;;;4.57;;
11620;SDS011;5866;49.094;11.900;2023-05-07T10:58:54;4.45;;;4.05;;
11620;SDS011;5866;49.094;11.900;2023-05-07T11:04:19;4.80;;;4.40;;
11620;SDS011;5866;49.094;11.900;2023-05-07T11:09:54;4.70;;;4.30;;
11620;SDS011;5866;49.094;11.900;2023-05-07T11:15:44;6.15;;;4.13;;
11620;SDS011;5866;49.094;11.900;2023-05-07T11:18:13;4.75;;;4.18;;
11620;SDS011;5866;49.094;11.900;2023-05-07T11:20:56;4.20;;;3.85;;
11620;SDS011;5866;49.094;11.900;2023-05-07T11:26:26;5.38;;;4.88;;
11620;SDS011;5866;49.094;11.900;2023-05-07T11:28:54;4.53;;;4.13;;
11620;SDS011;5866;49.094;11.900;2023-05-07T11:31:23;4.97;;;4.45;;
11620;SDS011;5866;49.094;11.900;2023-05-07T11:33:53;4.70;;;4.30;;
11620;SDS011;5866;49.094;11.900;2023-05-07T11:36:23;4.60;;;4.20;;
11620;SDS011;5866;49.094;11.900;2023-05-07T11:38:52;5.25;;;4.72;;
11620;SDS011;5866;49.094;11.900;2023-05-07T11:41:19;4.80;;;4.10;;
11620;SDS011;5866;49.094;11.900;2023-05-07T11:43:54;5.07;;;4.10;;
11620;SDS011;5866;49.094;11.900;2023-05-07T11:46:23;4.28;;;3.97;;
11620;SDS011;5866;49.094;11.900;2023-05-07T11:48:50;4.75;;;4.25;;
11620;SDS011;5866;49.094;11.900;2023-05-07T11:51:18;4.57;;;4.18;;
11620;SDS011;5866;49.094;11.900;2023-05-07T11:53:48;5.18;;;4.53;;
11620;SDS011;5866;49.094;11.900;2023-05-07T11:56:16;5.00;;;4.25;;
11620;SDS011;5866;49.094;11.900;2023-05-07T11:58:46;4.47;;;4.13;;
11620;SDS011;5866;49.094;11.900;2023-05-07T12:01:14;4.38;;;4.05;;
11620;SDS011;5866;49.094;11.900;2023-05-07T12:03:43;4.50;;;4.10;;
11620;SDS011;5866;49.094;11.900;2023-05-07T12:06:13;4.00;;;3.70;;
11620;SDS011;5866;49.094;11.900;2023-05-07T12:08:42;4.35;;;3.95;;
11620;SDS011;5866;49.094;11.900;2023-05-07T12:11:15;4.28;;;3.88;;
11620;SDS011;5866;49.094;11.900;2023-05-07T12:13:44;4.20;;;3.90;;
11620;SDS011;5866;49.094;11.900;2023-05-07T12:16:12;4.00;;;3.70;;
11620;SDS011;5866;49.094;11.900;2023-05-07T12:18:39;4.78;;;3.28;;
11620;SDS011;5866;49.094;11.900;2023-05-07T12:21:07;4.10;;;3.80;;
11620;SDS011;5866;49.094;11.900;2023-05-07T12:23:36;3.80;;;3.50;;
11620;SDS011;5866;49.094;11.900;2023-05-07T12:26:04;4.05;;;3.75;;
11620;SDS011;5866;49.094;11.900;2023-05-07T12:28:37;4.00;;;3.67;;
11620;SDS011;5866;49.094;11.900;2023-05-07T12:31:06;3.40;;;3.13;;
11620;SDS011;5866;49.094;11.900;2023-05-07T12:33:34;3.65;;;3.10;;
11620;SDS011;5866;49.094;11.900;2023-05-07T12:36:03;3.60;;;3.30;;
11620;SDS011;5866;49.094;11.900;2023-05-07T12:38:34;4.18;;;3.03;;
11620;SDS011;5866;49.094;11.900;2023-05-07T12:41:02;3.53;;;3.22;;
11620;SDS011;5866;49.094;11.900;2023-05-07T12:43:31;4.53;;;3.20;;
11620;SDS011;5866;49.094;11.900;2023-05-07T12:46:01;3.08;;;2.88;;
11620;SDS011;5866;49.094;11.900;2023-05-07T12:48:30;3.88;;;3.53;;
11620;SDS011;5866;49.094;11.900;2023-05-07T12:50:59;4.00;;;3.22;;
11620;SDS011;5866;49.094;11.900;2023-05-07T12:53:27;3.03;;;2.83;;
11620;SDS011;5866;49.094;11.900;2023-05-07T12:55:56;3.47;;;3.20;;
11620;SDS011;5866;49.094;11.900;2023-05-07T12:58:26;3.50;;;3.20;;
11620;SDS011;5866;49.094;11.900;2023-05-07T13:00:55;3.38;;;2.90;;
11620;SDS011;5866;49.094;11.900;2023-05-07T13:03:28;3.40;;;2.95;;
11620;SDS011;5866;49.094;11.900;2023-05-07T13:05:57;3.10;;;2.85;;
11620;SDS011;5866;49.094;11.900;2023-05-07T13:08:26;3.20;;;2.90;;
11620;SDS011;5866;49.094;11.900;2023-05-07T13:10:56;3.30;;;3.00;;
11620;SDS011;5866;49.094;11.900;2023-05-07T13:13:24;2.78;;;2.58;;
11620;SDS011;5866;49.094;11.900;2023-05-07T13:15:53;5.10;;;2.72;;
11620;SDS011;5866;49.094;11.900;2023-05-07T13:18:21;4.88;;;3.00;;
11620;SDS011;5866;49.094;11.900;2023-05-07T13:20:50;2.90;;;2.60;;
11620;SDS011;5866;49.094;11.900;2023-05-07T13:23:17;3.10;;;2.80;;
11620;SDS011;5866;49.094;11.900;2023-05-07T13:25:45;2.80;;;2.60;;
11620;SDS011;5866;49.094;11.900;2023-05-07T13:28:12;2.10;;;2.00;;
11620;SDS011;5866;49.094;11.900;2023-05-07T13:30:40;2.33;;;2.13;;
11620;SDS011;5866;49.094;11.900;2023-05-07T13:33:08;2.75;;;2.05;;
11620;SDS011;5866;49.094;11.900;2023-05-07T13:35:35;2.53;;;2.30;;
11620;SDS011;5866;49.094;11.900;2023-05-07T13:38:05;2.30;;;2.15;;
11620;SDS011;5866;49.094;11.900;2023-05-07T13:40:32;2.42;;;2.22;;
11620;SDS011;5866;49.094;11.900;2023-05-07T13:43:00;2.42;;;1.92;;
11620;SDS011;5866;49.094;11.900;2023-05-07T13:45:28;2.40;;;2.22;;
11620;SDS011;5866;49.094;11.900;2023-05-07T13:47:56;3.13;;;2.50;;
11620;SDS011;5866;49.094;11.900;2023-05-07T13:50:24;3.67;;;3.38;;
11620;SDS011;5866;49.094;11.900;2023-05-07T13:52:55;2.80;;;2.60;;
11620;SDS011;5866;49.094;11.900;2023-05-07T13:55:24;2.97;;;2.63;;
11620;SDS011;5866;49.094;11.900;2023-05-07T13:57:55;2.85;;;2.55;;
11620;SDS011;5866;49.094;11.900;2023-05-07T14:00:23;3.03;;;2.55;;
11620;SDS011;5866;49.094;11.900;2023-05-07T14:02:51;3.13;;;2.72;;
11620;SDS011;5866;49.094;11.900;2023-05-07T14:05:19;3.00;;;2.67;;
11620;SDS011;5866;49.094;11.900;2023-05-07T14:07:47;3.00;;;2.60;;
11620;SDS011;5866;49.094;11.900;2023-05-07T14:10:18;2.90;;;2.50;;
11620;SDS011;5866;49.094;11.900;2023-05-07T14:12:47;3.53;;;3.00;;
11620;SDS011;5866;49.094;11.900;2023-05-07T14:15:15;6.10;;;2.80;;
11620;SDS011;5866;49.094;11.900;2023-05-07T14:17:43;2.92;;;2.72;;
11620;SDS011;5866;49.094;11.900;2023-05-07T14:20:11;2.65;;;2.42;;
11620;SDS011;5866;49.094;11.900;2023-05-07T14:22:39;2.83;;;2.63;;
11620;SDS011;5866;49.094;11.900;2023-05-07T14:25:07;3.03;;;2.78;;
11620;SDS011;5866;49.094;11.900;2023-05-07T14:27:36;3.20;;;2.92;;
11620;SDS011;5866;49.094;11.900;2023-05-07T14:30:06;3.15;;;2.90;;
11620;SDS011;5866;49.094;11.900;2023-05-07T14:32:34;3.38;;;3.05;;
11620;SDS011;5866;49.094;11.900;2023-05-07T14:35:02;3.05;;;2.85;;
11620;SDS011;5866;49.094;11.900;2023-05-07T14:37:30;3.40;;;3.10;;
11620;SDS011;5866;49.094;11.900;2023-05-07T14:39:57;3.35;;;3.05;;
11620;SDS011;5866;49.094;11.900;2023-05-07T14:42:25;3.30;;;3.10;;
11620;SDS011;5866;49.094;11.900;2023-05-07T14:44:52;3.30;;;3.00;;
11620;SDS011;5866;49.094;11.900;2023-05-07T14:47:21;2.65;;;2.45;;
11620;SDS011;5866;49.094;11.900;2023-05-07T14:49:48;3.65;;;3.35;;
11620;SDS011;5866;49.094;11.900;2023-05-07T14:52:16;3.95;;;3.60;;
11620;SDS011;5866;49.094;11.900;2023-05-07T14:54:43;4.32;;;4.03;;
11620;SDS011;5866;49.094;11.900;2023-05-07T14:57:11;3.88;;;3.58;;
11620;SDS011;5866;49.094;11.900;2023-05-07T14:59:42;5.40;;;4.93;;
11620;SDS011;5866;49.094;11.900;2023-05-07T15:02:10;5.03;;;4.63;;
11620;SDS011;5866;49.094;11.900;2023-05-07T15:04:40;4.97;;;4.57;;
11620;SDS011;5866;49.094;11.900;2023-05-07T15:07:12;5.35;;;4.95;;